createdAt,value
2022-08-19T00:02:06.766Z,22.14
2022-08-19T00:04:37.968Z,22.08
2022-08-19T00:07:08.509Z,22.13
2022-08-19T00:09:37.518Z,22.12
2022-08-19T00:12:06.863Z,22.06
2022-08-19T00:14:35.454Z,22.07
2022-08-19T00:17:06.156Z,22.09
2022-08-19T00:19:35.228Z,22.05
2022-08-19T00:22:04.318Z,22.03
2022-08-19T00:24:33.132Z,22.08
2022-08-19T00:27:26.144Z,22.04
2022-08-19T00:29:52.458Z,22.02
2022-08-19T00:32:22.977Z,22.06
2022-08-19T00:34:54.495Z,22.01
2022-08-19T00:37:24.084Z,22.00
2022-08-19T00:39:53.187Z,22.02
2022-08-19T00:42:23.785Z,22.07
2022-08-19T00:44:52.625Z,21.98
2022-08-19T00:47:22.545Z,21.97
2022-08-19T00:49:54.766Z,22.05
2022-08-19T00:52:28.118Z,22.00
2022-08-19T00:54:57.380Z,21.99
2022-08-19T00:57:31.811Z,22.06
2022-08-19T01:00:03.958Z,22.01
2022-08-19T01:02:35.128Z,21.94
2022-08-19T01:05:10.955Z,22.03
2022-08-19T01:07:41.289Z,22.00
2022-08-19T01:10:15.131Z,22.01
2022-08-19T01:12:43.898Z,21.99
2022-08-19T01:15:16.691Z,21.88
2022-08-19T01:17:47.959Z,21.89
2022-08-19T01:20:22.285Z,21.94
2022-08-19T01:22:54.816Z,21.88
2022-08-19T01:25:28.400Z,21.96
2022-08-19T01:28:03.055Z,21.91
2022-08-19T01:30:44.440Z,22.01
2022-08-19T01:33:20.256Z,21.99
2022-08-19T01:35:53.620Z,21.90
2022-08-19T01:38:27.715Z,21.90
2022-08-19T01:40:56.177Z,21.89
2022-08-19T01:43:24.573Z,21.88
2022-08-19T01:45:53.704Z,21.82
2022-08-19T01:48:22.926Z,21.85
2022-08-19T01:50:51.321Z,21.87
2022-08-19T01:53:19.893Z,21.87
2022-08-19T01:55:49.701Z,21.89
2022-08-19T01:58:23.714Z,21.85
2022-08-19T02:00:52.198Z,21.89
2022-08-19T02:03:20.614Z,21.84
2022-08-19T02:05:49.548Z,21.83
2022-08-19T02:08:18.007Z,21.82
2022-08-19T02:10:47.076Z,21.84
2022-08-19T02:13:16.881Z,21.88
2022-08-19T02:15:51.344Z,21.81
2022-08-19T02:18:19.993Z,21.77
2022-08-19T02:20:49.085Z,21.72
2022-08-19T02:23:19.188Z,21.72
2022-08-19T02:25:49.638Z,21.80
2022-08-19T02:28:19.484Z,21.85
2022-08-19T02:30:49.753Z,21.76
2022-08-19T02:33:18.882Z,21.82
2022-08-19T02:35:48.880Z,21.82
2022-08-19T02:38:28.571Z,21.78
2022-08-19T02:40:59.780Z,21.83
2022-08-19T02:43:33.716Z,21.80
2022-08-19T02:46:03.465Z,21.81
2022-08-19T02:48:33.966Z,21.84
2022-08-19T02:51:02.812Z,21.82
2022-08-19T02:53:31.399Z,21.87
2022-08-19T02:55:59.835Z,21.88
2022-08-19T02:58:29.619Z,21.87
2022-08-19T03:00:59.663Z,21.83
2022-08-19T03:03:28.562Z,21.75
2022-08-19T03:06:11.512Z,21.69
2022-08-19T03:08:41.668Z,21.72
2022-08-19T03:11:16.942Z,21.68
2022-08-19T03:13:46.935Z,21.70
2022-08-19T03:16:15.507Z,21.70
2022-08-19T03:18:43.975Z,21.70
2022-08-19T03:21:19.146Z,21.72
2022-08-19T03:23:48.077Z,21.64
2022-08-19T03:26:17.235Z,21.68
2022-08-19T03:28:57.881Z,21.71
2022-08-19T03:31:42.037Z,21.70
2022-08-19T03:34:18.285Z,21.69
2022-08-19T03:36:47.719Z,21.69
2022-08-19T03:39:17.066Z,21.70
2022-08-19T03:41:48.199Z,21.72
2022-08-19T03:44:21.627Z,21.66
2022-08-19T03:46:52.939Z,21.58
2022-08-19T03:49:27.079Z,21.69
2022-08-19T03:52:01.276Z,21.74
2022-08-19T03:54:30.956Z,21.78
2022-08-19T03:57:00.371Z,21.67
2022-08-19T03:59:34.450Z,21.63
2022-08-19T04:02:10.173Z,21.67
2022-08-19T04:04:39.843Z,21.67
2022-08-19T04:07:09.418Z,21.70
2022-08-19T04:09:39.196Z,21.66
2022-08-19T04:12:08.750Z,21.61
2022-08-19T04:14:38.724Z,21.49
2022-08-19T04:17:07.363Z,21.46
2022-08-19T04:19:38.010Z,21.46
2022-08-19T04:22:07.751Z,21.40
2022-08-19T04:24:37.713Z,21.44
2022-08-19T04:27:07.545Z,21.36
2022-08-19T04:29:40.543Z,21.36
2022-08-19T04:32:09.889Z,21.28
2022-08-19T04:35:02.516Z,21.27
2022-08-19T04:37:34.996Z,21.26
2022-08-19T04:40:25.225Z,21.28
2022-08-19T04:42:54.471Z,21.29
2022-08-19T04:45:24.844Z,21.25
2022-08-19T04:48:26.508Z,21.26
2022-08-19T04:50:46.712Z,21.25
2022-08-19T04:53:15.144Z,21.29
2022-08-19T04:55:43.959Z,21.28
2022-08-19T04:58:12.449Z,21.29
2022-08-19T05:00:42.667Z,21.26
2022-08-19T05:03:11.677Z,21.25
2022-08-19T05:05:44.583Z,21.27
2022-08-19T05:08:15.393Z,21.46
2022-08-19T05:10:45.545Z,21.39
2022-08-19T05:13:14.060Z,21.41
2022-08-19T05:15:43.977Z,21.39
2022-08-19T05:18:29.970Z,21.44
2022-08-19T05:21:15.926Z,21.39
2022-08-19T05:23:45.691Z,21.44
2022-08-19T05:26:14.139Z,21.45
2022-08-19T05:28:42.595Z,21.52
2022-08-19T05:31:13.075Z,21.55
2022-08-19T05:33:41.724Z,21.67
2022-08-19T05:36:10.517Z,21.70
2022-08-19T05:38:39.098Z,21.69
2022-08-19T05:41:10.530Z,21.68
2022-08-19T05:43:40.324Z,21.70
2022-08-19T05:46:11.018Z,21.73
2022-08-19T05:48:39.396Z,21.80
2022-08-19T05:51:09.236Z,21.85
2022-08-19T05:53:38.217Z,21.94
2022-08-19T05:56:07.944Z,22.00
2022-08-19T05:58:36.549Z,22.00
2022-08-19T06:01:06.925Z,21.97
2022-08-19T06:03:38.423Z,22.05
2022-08-19T06:06:08.390Z,22.12
2022-08-19T06:08:38.353Z,22.21
2022-08-19T06:11:20.939Z,22.23
2022-08-19T06:13:59.724Z,22.30
2022-08-19T06:16:29.911Z,22.40
2022-08-19T06:19:03.354Z,22.60
2022-08-19T06:21:33.151Z,22.92
2022-08-19T06:24:02.407Z,23.09
2022-08-19T06:26:30.893Z,23.12
2022-08-19T06:28:59.580Z,23.23
2022-08-19T06:31:34.657Z,22.94
2022-08-19T06:34:06.209Z,22.83
2022-08-19T06:36:39.232Z,22.85
2022-08-19T06:39:11.092Z,22.61
2022-08-19T06:41:49.326Z,22.58
2022-08-19T06:44:21.723Z,22.72
2022-08-19T06:46:54.817Z,22.85
2022-08-19T06:49:28.620Z,22.81
2022-08-19T06:51:58.189Z,23.09
2022-08-19T06:54:30.895Z,23.21
2022-08-19T06:57:02.939Z,23.42
2022-08-19T06:59:34.125Z,23.84
2022-08-19T07:02:07.541Z,24.06
2022-08-19T07:04:39.227Z,24.17
2022-08-19T07:07:19.714Z,24.61
2022-08-19T07:09:52.256Z,24.62
2022-08-19T07:12:30.432Z,24.76
2022-08-19T07:15:00.156Z,24.86
2022-08-19T07:17:30.586Z,25.02
2022-08-19T07:20:05.160Z,25.16
2022-08-19T07:22:35.639Z,25.13
2022-08-19T07:25:05.912Z,25.23
2022-08-19T07:27:34.943Z,25.64
2022-08-19T07:30:05.513Z,25.37
2022-08-19T07:32:33.976Z,25.53
2022-08-19T07:35:04.455Z,26.10
2022-08-19T07:37:33.586Z,26.20
2022-08-19T07:40:02.742Z,26.70
2022-08-19T07:42:31.671Z,26.57
2022-08-19T07:45:00.813Z,27.06
2022-08-19T07:47:58.376Z,27.44
2022-08-19T07:50:22.559Z,27.43
2022-08-19T07:52:52.858Z,27.58
2022-08-19T07:55:41.654Z,27.50
2022-08-19T07:58:13.392Z,27.83
2022-08-19T08:00:42.472Z,28.34
2022-08-19T08:03:11.055Z,28.58
2022-08-19T08:06:00.640Z,29.37
2022-08-19T08:08:48.246Z,29.54
2022-08-19T08:11:20.663Z,30.45
2022-08-19T08:14:01.148Z,30.25
2022-08-19T08:16:39.661Z,29.29
2022-08-19T08:19:20.646Z,29.60
2022-08-19T08:21:56.936Z,29.96
2022-08-19T08:24:28.291Z,29.11
2022-08-19T08:26:58.377Z,29.85
2022-08-19T08:29:27.250Z,29.64
2022-08-19T08:32:04.510Z,29.74
2022-08-19T08:34:43.335Z,29.46
2022-08-19T08:37:13.116Z,29.14
2022-08-19T08:39:44.819Z,29.17
2022-08-19T08:42:21.317Z,29.18
2022-08-19T08:47:37.198Z,28.27
2022-08-19T08:50:16.534Z,28.56
2022-08-19T08:52:50.307Z,28.86
2022-08-19T08:55:24.616Z,28.73
2022-08-19T08:58:02.774Z,28.72
2022-08-19T09:00:41.340Z,29.25
2022-08-19T09:03:23.179Z,29.06
2022-08-19T09:06:01.378Z,28.94
2022-08-19T09:08:44.201Z,29.04
2022-08-19T09:11:42.973Z,28.99
2022-08-19T09:14:40.728Z,29.22
2022-08-19T09:17:09.076Z,28.03
2022-08-19T09:19:38.745Z,28.59
2022-08-19T09:22:08.611Z,28.87
2022-08-19T09:24:40.834Z,29.20
2022-08-19T09:27:18.440Z,29.36
2022-08-19T09:29:50.094Z,29.15
2022-08-19T09:32:26.571Z,29.15
2022-08-19T09:34:56.018Z,29.04
2022-08-19T09:37:25.197Z,28.42
2022-08-19T09:39:55.940Z,27.98
2022-08-19T09:42:30.098Z,28.56
2022-08-19T09:45:10.276Z,28.10
2022-08-19T09:47:40.529Z,28.30
2022-08-19T09:50:16.421Z,28.39
2022-08-19T09:52:55.746Z,28.78
2022-08-19T09:55:31.735Z,28.75
2022-08-19T09:58:02.969Z,29.19
2022-08-19T10:00:32.807Z,29.35
2022-08-19T10:03:01.340Z,28.93
2022-08-19T10:05:48.513Z,28.95
2022-08-19T10:08:20.839Z,29.35
2022-08-19T10:10:51.676Z,29.11
2022-08-19T10:13:25.925Z,28.51
2022-08-19T10:16:06.895Z,28.41
2022-08-19T10:18:39.242Z,28.77
2022-08-19T10:21:21.376Z,28.38
2022-08-19T10:23:52.455Z,28.17
2022-08-19T10:26:26.495Z,28.14
2022-08-19T10:28:56.040Z,28.52
2022-08-19T10:32:00.803Z,28.79
2022-08-19T10:34:27.589Z,29.62
2022-08-19T10:37:00.956Z,29.74
2022-08-19T10:39:32.641Z,29.68
2022-08-19T10:42:14.236Z,29.58
2022-08-19T10:44:43.201Z,29.59
2022-08-19T10:47:17.969Z,29.60
2022-08-19T10:50:12.506Z,29.37
2022-08-19T10:52:49.773Z,29.05
2022-08-19T10:55:38.659Z,29.12
2022-08-19T10:58:14.224Z,29.79
2022-08-19T11:00:43.588Z,30.18
2022-08-19T11:03:12.647Z,30.42
2022-08-19T11:05:41.874Z,30.28
2022-08-19T11:08:22.442Z,30.75
2022-08-19T11:11:00.398Z,30.00
2022-08-19T11:13:32.635Z,29.84
2022-08-19T11:16:07.736Z,29.17
2022-08-19T11:18:40.311Z,28.76
2022-08-19T11:21:12.651Z,28.93
2022-08-19T11:23:41.333Z,29.32
2022-08-19T11:26:09.780Z,29.52
2022-08-19T11:28:40.527Z,29.89
2022-08-19T11:31:13.814Z,30.06
2022-08-19T11:33:42.588Z,29.83
2022-08-19T11:36:16.321Z,30.09
2022-08-19T11:38:45.634Z,29.72
2022-08-19T11:41:14.157Z,29.88
2022-08-19T11:43:44.408Z,29.64
2022-08-19T11:46:16.193Z,29.37
2022-08-19T11:48:45.218Z,29.00
2022-08-19T11:51:16.215Z,28.76
2022-08-19T11:53:45.422Z,28.67
2022-08-19T11:56:14.661Z,28.74
2022-08-19T11:58:44.734Z,29.20
2022-08-19T12:01:16.446Z,29.46
2022-08-19T12:03:45.906Z,29.02
2022-08-19T12:06:17.931Z,28.94
2022-08-19T12:08:48.438Z,28.52
2022-08-19T12:11:17.063Z,28.41
2022-08-19T12:13:47.251Z,28.21
2022-08-19T12:16:20.026Z,28.47
2022-08-19T12:18:49.301Z,28.65
2022-08-19T12:21:22.125Z,28.72
2022-08-19T12:23:55.716Z,28.92
2022-08-19T12:26:25.460Z,28.98
2022-08-19T12:28:55.982Z,28.84
2022-08-19T12:31:24.559Z,28.83
2022-08-19T12:33:53.382Z,28.48
2022-08-19T12:36:22.983Z,28.68
2022-08-19T12:38:51.964Z,28.87
2022-08-19T12:41:23.272Z,28.97
2022-08-19T12:43:52.145Z,28.93
2022-08-19T12:46:23.752Z,28.87
2022-08-19T12:48:56.229Z,28.74
2022-08-19T12:51:26.261Z,28.79
2022-08-19T12:53:54.699Z,28.64
2022-08-19T12:56:23.500Z,28.13
2022-08-19T12:58:53.087Z,28.47
2022-08-19T13:01:23.545Z,28.58
2022-08-19T13:03:54.150Z,28.77
2022-08-19T13:06:23.623Z,28.90
2022-08-19T13:08:55.433Z,28.65
2022-08-19T13:11:26.460Z,28.43
2022-08-19T13:13:56.175Z,28.25
2022-08-19T13:16:27.287Z,28.10
2022-08-19T13:18:57.515Z,28.12
2022-08-19T13:21:30.895Z,28.10
2022-08-19T13:24:00.067Z,28.18
2022-08-19T13:26:28.452Z,28.11
2022-08-19T13:29:14.542Z,28.17
2022-08-19T13:32:02.223Z,28.43
2022-08-19T13:34:36.619Z,28.51
2022-08-19T13:37:06.859Z,28.74
2022-08-19T13:39:37.502Z,28.54
2022-08-19T13:42:08.170Z,28.61
2022-08-19T13:44:36.637Z,28.60
2022-08-19T13:47:09.160Z,28.50
2022-08-19T13:49:38.598Z,28.46
2022-08-19T13:52:07.902Z,28.62
2022-08-19T13:54:36.319Z,28.65
2022-08-19T13:57:06.099Z,28.61
2022-08-19T13:59:34.725Z,28.70
2022-08-19T14:02:06.508Z,28.85
2022-08-19T14:04:34.964Z,28.97
2022-08-19T14:07:03.355Z,28.78
2022-08-19T14:09:32.357Z,28.60
2022-08-19T14:12:00.717Z,28.82
2022-08-19T14:14:30.069Z,28.88
2022-08-19T14:16:58.581Z,28.90
2022-08-19T14:19:30.053Z,28.84
2022-08-19T14:21:59.622Z,28.70
2022-08-19T14:24:28.158Z,28.87
2022-08-19T14:26:56.840Z,28.62
2022-08-19T14:29:25.223Z,28.64
2022-08-19T14:31:53.788Z,28.86
2022-08-19T14:34:23.141Z,28.62
2022-08-19T14:36:53.003Z,28.77
2022-08-19T14:39:22.298Z,28.78
2022-08-19T14:41:50.729Z,28.61
2022-08-19T14:44:19.327Z,28.26
2022-08-19T14:46:49.296Z,28.30
2022-08-19T14:49:19.373Z,28.50
2022-08-19T14:51:48.648Z,28.39
2022-08-19T14:54:18.425Z,28.34
2022-08-19T14:56:47.344Z,28.38
2022-08-19T14:59:16.048Z,28.46
2022-08-19T15:01:44.729Z,28.52
2022-08-19T15:04:13.253Z,28.43
2022-08-19T15:06:43.302Z,28.61
2022-08-19T15:09:12.210Z,28.61
2022-08-19T15:11:42.221Z,28.45
2022-08-19T15:14:11.104Z,28.52
2022-08-19T15:16:42.660Z,28.43
2022-08-19T15:19:12.761Z,28.56
2022-08-19T15:21:41.275Z,28.41
2022-08-19T15:24:10.208Z,28.30
2022-08-19T15:26:38.654Z,28.33
2022-08-19T15:29:09.219Z,28.36
2022-08-19T15:31:38.261Z,28.50
2022-08-19T15:34:08.060Z,28.36
2022-08-19T15:36:37.173Z,28.48
2022-08-19T15:39:07.518Z,28.50
2022-08-19T15:41:36.994Z,28.70
2022-08-19T15:44:10.844Z,28.77
2022-08-19T15:46:42.418Z,28.62
2022-08-19T15:49:12.251Z,28.71
2022-08-19T15:51:43.133Z,28.80
2022-08-19T15:54:15.299Z,28.63
2022-08-19T15:57:01.201Z,28.52
2022-08-19T15:59:48.406Z,28.54
2022-08-19T16:02:39.044Z,28.70
2022-08-19T16:05:29.590Z,28.75
2022-08-19T16:07:58.156Z,28.62
2022-08-19T16:10:28.181Z,28.72
2022-08-19T16:12:58.261Z,28.57
2022-08-19T16:15:30.563Z,28.62
2022-08-19T16:18:03.319Z,28.53
2022-08-19T16:20:33.197Z,28.58
2022-08-19T16:23:05.183Z,28.57
2022-08-19T16:25:33.825Z,28.50
2022-08-19T16:28:07.135Z,28.19
2022-08-19T16:30:39.559Z,28.43
2022-08-19T16:33:09.139Z,28.52
2022-08-19T16:35:37.805Z,28.32
2022-08-19T16:38:07.027Z,28.35
2022-08-19T16:40:36.755Z,28.21
2022-08-19T16:43:05.972Z,28.25
2022-08-19T16:45:34.416Z,28.37
2022-08-19T16:48:04.785Z,28.25
2022-08-19T16:50:48.648Z,28.27
2022-08-19T16:53:20.397Z,28.26
2022-08-19T16:55:50.833Z,28.10
2022-08-19T16:58:19.499Z,28.17
2022-08-19T17:00:48.640Z,28.24
2022-08-19T17:03:35.650Z,28.29
2022-08-19T17:06:18.499Z,28.27
2022-08-19T17:08:50.658Z,28.17
2022-08-19T17:11:21.234Z,28.15
2022-08-19T17:13:52.153Z,28.27
2022-08-19T17:16:24.509Z,28.20
2022-08-19T17:18:55.449Z,28.31
2022-08-19T17:21:28.899Z,28.27
2022-08-19T17:23:58.352Z,28.27
2022-08-19T17:26:28.073Z,28.16
2022-08-19T17:28:59.194Z,27.98
2022-08-19T17:31:31.270Z,28.04
2022-08-19T17:34:01.837Z,27.98
2022-08-19T17:36:34.133Z,27.78
2022-08-19T17:39:04.873Z,27.93
2022-08-19T17:41:35.068Z,28.03
2022-08-19T17:44:04.061Z,28.02
2022-08-19T17:46:33.040Z,27.92
2022-08-19T17:49:02.898Z,27.90
2022-08-19T17:51:45.486Z,28.00
2022-08-19T17:54:17.388Z,27.94
2022-08-19T17:56:46.357Z,27.92
2022-08-19T17:59:16.313Z,27.82
2022-08-19T18:01:53.124Z,27.71
2022-08-19T18:04:25.839Z,27.73
2022-08-19T18:06:55.808Z,27.65
2022-08-19T18:09:26.817Z,27.74
2022-08-19T18:11:57.827Z,27.67
2022-08-19T18:14:33.652Z,27.68
2022-08-19T18:17:06.123Z,27.56
2022-08-19T18:19:42.217Z,27.39
2022-08-19T18:22:13.427Z,27.30
2022-08-19T18:24:42.911Z,27.22
2022-08-19T18:27:15.211Z,27.16
2022-08-19T18:29:43.762Z,27.14
2022-08-19T18:32:13.685Z,27.07
2022-08-19T18:34:45.866Z,27.10
2022-08-19T18:37:14.446Z,27.01
2022-08-19T18:40:00.300Z,26.97
2022-08-19T18:42:46.818Z,26.89
2022-08-19T18:45:33.265Z,26.84
2022-08-19T18:48:27.640Z,26.77
2022-08-19T18:51:00.945Z,26.76
2022-08-19T18:53:34.158Z,26.75
2022-08-19T18:56:02.985Z,26.66
2022-08-19T18:58:34.854Z,26.67
2022-08-19T19:01:11.200Z,26.61
2022-08-19T19:03:44.249Z,26.60
2022-08-19T19:06:15.679Z,26.59
2022-08-19T19:08:44.621Z,26.55
2022-08-19T19:11:13.211Z,26.49
2022-08-19T19:13:46.125Z,26.50
2022-08-19T19:16:14.679Z,26.46
2022-08-19T19:18:44.592Z,26.41
2022-08-19T19:21:14.403Z,26.33
2022-08-19T19:23:42.918Z,26.33
2022-08-19T19:26:13.553Z,26.27
2022-08-19T19:28:45.615Z,26.26
2022-08-19T19:31:17.632Z,26.20
2022-08-19T19:33:47.047Z,26.20
2022-08-19T19:36:17.663Z,26.16
2022-08-19T19:38:48.806Z,26.14
2022-08-19T19:41:23.378Z,26.12
2022-08-19T19:44:10.002Z,26.08
2022-08-19T19:46:42.668Z,26.00
2022-08-19T19:49:12.107Z,25.98
2022-08-19T19:51:43.585Z,25.95
2022-08-19T19:54:14.685Z,25.88
2022-08-19T19:56:45.376Z,25.86
2022-08-19T19:59:14.230Z,25.75
2022-08-19T20:01:47.149Z,25.77
2022-08-19T20:04:16.765Z,25.73
2022-08-19T20:06:47.307Z,25.66
2022-08-19T20:09:19.745Z,25.60
2022-08-19T20:11:53.477Z,25.62
2022-08-19T20:14:26.477Z,25.55
2022-08-19T20:16:56.836Z,25.50
2022-08-19T20:19:32.803Z,25.47
2022-08-19T20:22:02.877Z,25.39
2022-08-19T20:24:36.352Z,25.43
2022-08-19T20:27:06.793Z,25.34
2022-08-19T20:29:38.942Z,25.43
2022-08-19T20:32:10.192Z,25.32
2022-08-19T20:34:39.062Z,25.30
2022-08-19T20:37:09.922Z,25.26
2022-08-19T20:39:39.155Z,25.25
2022-08-19T20:42:07.968Z,25.19
2022-08-19T20:44:37.788Z,25.15
2022-08-19T20:47:06.695Z,25.15
2022-08-19T20:49:35.410Z,25.07
2022-08-19T20:52:06.293Z,25.05
2022-08-19T20:54:36.263Z,24.97
2022-08-19T20:57:05.499Z,24.96
2022-08-19T20:59:34.396Z,24.94
2022-08-19T21:02:02.884Z,24.93
2022-08-19T21:04:31.406Z,24.90
2022-08-19T21:07:00.173Z,24.84
2022-08-19T21:09:28.670Z,24.82
2022-08-19T21:11:58.467Z,24.73
2022-08-19T21:14:27.035Z,24.72
2022-08-19T21:16:55.643Z,24.70
2022-08-19T21:19:24.340Z,24.70
2022-08-19T21:21:53.386Z,24.71
2022-08-19T21:24:21.877Z,24.64
2022-08-19T21:27:00.448Z,24.62
2022-08-19T21:29:29.005Z,24.54
2022-08-19T21:31:57.423Z,24.53
2022-08-19T21:34:25.904Z,24.47
2022-08-19T21:36:54.370Z,24.43
2022-08-19T21:39:22.737Z,24.47
2022-08-19T21:41:51.343Z,24.50
2022-08-19T21:44:21.110Z,24.51
2022-08-19T21:46:50.497Z,24.39
2022-08-19T21:49:19.662Z,24.36
2022-08-19T21:51:48.198Z,24.44
2022-08-19T21:54:16.649Z,24.38
2022-08-19T21:56:45.061Z,24.36
2022-08-19T21:59:13.394Z,24.34
2022-08-19T22:01:48.727Z,24.29
2022-08-19T22:04:18.935Z,24.26
2022-08-19T22:06:47.663Z,24.18
2022-08-19T22:09:16.102Z,24.13
2022-08-19T22:11:44.513Z,24.09
2022-08-19T22:14:12.931Z,24.10
2022-08-19T22:16:43.139Z,23.98
2022-08-19T22:19:12.869Z,24.03
2022-08-19T22:21:41.436Z,24.08
2022-08-19T22:24:11.036Z,24.02
2022-08-19T22:26:39.520Z,23.96
2022-08-19T22:29:08.298Z,23.89
2022-08-19T22:31:37.625Z,23.93
2022-08-19T22:34:07.800Z,23.95
2022-08-19T22:36:36.239Z,23.90
2022-08-19T22:39:05.643Z,23.84
2022-08-19T22:41:34.706Z,23.81
2022-08-19T22:44:03.855Z,23.95
2022-08-19T22:46:33.652Z,23.85
2022-08-19T22:49:02.039Z,23.86
2022-08-19T22:51:48.507Z,23.88
2022-08-19T22:54:17.296Z,23.76
2022-08-19T22:56:45.763Z,23.73
2022-08-19T22:59:14.305Z,23.72
2022-08-19T23:01:42.827Z,23.69
2022-08-19T23:04:11.421Z,23.74
2022-08-19T23:06:42.432Z,23.73
2022-08-19T23:09:17.449Z,23.70
2022-08-19T23:11:46.963Z,23.63
2022-08-19T23:14:17.647Z,23.69
2022-08-19T23:16:50.829Z,23.62
2022-08-19T23:19:21.349Z,23.62
2022-08-19T23:21:52.679Z,23.53
2022-08-19T23:24:21.246Z,23.47
2022-08-19T23:27:07.156Z,23.52
2022-08-19T23:29:53.166Z,23.58
2022-08-19T23:32:22.785Z,23.65
2022-08-19T23:34:51.257Z,23.62
2022-08-19T23:37:21.046Z,23.56
2022-08-19T23:39:50.017Z,23.52
2022-08-19T23:42:18.541Z,23.47
2022-08-19T23:44:52.249Z,23.46
2022-08-19T23:47:22.226Z,23.45
2022-08-19T23:49:51.183Z,23.43
2022-08-19T23:52:21.370Z,23.40
2022-08-19T23:54:49.921Z,23.46
2022-08-19T23:57:18.516Z,23.40
2022-08-19T23:59:46.902Z,23.37
